Terminal Aerodrome Forecast
Issued by NWS

Home | Current Version | Previous Version | Text Only | Print | Product List | Glossary On
Versions: 1 2 3 4 5 6 7 8 9 10 11 12 13 14 15
000
FTUS41 KPBZ 241700
TAFZZV
TAF
KZZV 241736Z 2418/2518 21020G45KT P6SM BKN050
     FM242100 23018G30KT P6SM SCT025 BKN040
      TEMPO 2421/2501 BKN025
     FM250500 24010G20KT P6SM BKN035=

USA.gov is the U.S. government's official web portal to all federal, state and local government web resources and services.